createdAt,value
2022-09-30T00:00:05.093Z,11.00
2022-09-30T00:02:42.090Z,10.90
2022-09-30T00:05:15.629Z,10.90
2022-09-30T00:07:49.019Z,10.90
2022-09-30T00:10:22.453Z,10.90
2022-09-30T00:12:55.775Z,10.90
2022-09-30T00:15:30.599Z,10.90
2022-09-30T00:18:04.035Z,10.90
2022-09-30T00:20:37.340Z,10.90
2022-09-30T00:23:10.720Z,10.90
2022-09-30T00:25:44.108Z,10.90
2022-09-30T00:28:17.979Z,10.90
2022-09-30T00:30:52.714Z,10.90
2022-09-30T00:33:26.016Z,10.90
2022-09-30T00:35:59.488Z,10.90
2022-09-30T00:38:32.828Z,10.90
2022-09-30T00:41:06.341Z,10.90
2022-09-30T00:43:42.307Z,10.90
2022-09-30T00:46:21.817Z,10.90
2022-09-30T00:48:55.868Z,10.90
2022-09-30T00:51:32.802Z,10.90
2022-09-30T00:54:07.826Z,10.80
2022-09-30T00:56:43.398Z,10.90
2022-09-30T00:59:19.270Z,10.80
2022-09-30T01:01:54.605Z,10.80
2022-09-30T01:04:28.847Z,10.80
2022-09-30T01:07:03.474Z,10.80
2022-09-30T01:09:37.325Z,10.80
2022-09-30T01:12:12.439Z,10.80
2022-09-30T01:14:47.159Z,10.80
2022-09-30T01:17:24.960Z,10.80
2022-09-30T01:20:13.137Z,10.80
2022-09-30T01:22:49.902Z,10.80
2022-09-30T01:25:36.340Z,10.70
2022-09-30T01:28:24.453Z,10.80
2022-09-30T01:31:09.163Z,10.80
2022-09-30T01:33:47.861Z,10.80
2022-09-30T01:36:31.336Z,10.80
2022-09-30T01:39:10.957Z,10.80
2022-09-30T01:41:45.905Z,10.80
2022-09-30T01:44:25.234Z,10.80
2022-09-30T01:47:01.458Z,10.80
2022-09-30T01:49:40.328Z,10.80
2022-09-30T01:52:16.222Z,10.80
2022-09-30T01:54:53.086Z,10.90
2022-09-30T01:57:29.412Z,10.80
2022-09-30T02:00:06.258Z,10.80
2022-09-30T02:02:46.930Z,10.80
2022-09-30T02:05:21.751Z,10.80
2022-09-30T02:07:57.374Z,10.70
2022-09-30T02:10:33.024Z,10.70
2022-09-30T02:13:10.912Z,10.70
2022-09-30T02:15:46.495Z,10.80
2022-09-30T02:18:23.865Z,10.80
2022-09-30T02:21:00.270Z,10.80
2022-09-30T02:23:34.632Z,10.80
2022-09-30T02:26:10.486Z,10.80
2022-09-30T02:28:46.542Z,10.80
2022-09-30T02:31:24.033Z,10.80
2022-09-30T02:34:01.424Z,10.80
2022-09-30T02:36:37.539Z,10.80
2022-09-30T02:39:12.243Z,10.90
2022-09-30T02:41:47.588Z,10.90
2022-09-30T02:44:21.245Z,10.90
2022-09-30T02:46:56.679Z,10.90
2022-09-30T02:49:33.360Z,10.90
2022-09-30T02:52:09.248Z,10.90
2022-09-30T02:54:45.730Z,10.90
2022-09-30T02:57:21.697Z,10.90
2022-09-30T02:59:55.090Z,10.90
2022-09-30T03:02:28.329Z,10.90
2022-09-30T03:05:02.947Z,10.90
2022-09-30T03:07:36.959Z,10.90
2022-09-30T03:10:13.996Z,10.90
2022-09-30T03:12:56.270Z,10.90
2022-09-30T03:15:39.858Z,11.00
2022-09-30T03:18:20.190Z,10.90
2022-09-30T03:21:02.178Z,10.90
2022-09-30T03:23:39.940Z,10.90
2022-09-30T03:26:19.029Z,11.00
2022-09-30T03:28:58.886Z,11.00
2022-09-30T03:31:35.844Z,10.90
2022-09-30T03:34:15.390Z,11.00
2022-09-30T03:37:03.966Z,11.00
2022-09-30T03:39:43.187Z,10.90
2022-09-30T03:42:22.626Z,10.90
2022-09-30T03:44:59.243Z,10.90
2022-09-30T03:47:35.006Z,11.00
2022-09-30T03:50:10.539Z,11.00
2022-09-30T03:52:45.365Z,11.00
2022-09-30T03:55:19.648Z,11.00
2022-09-30T03:57:54.565Z,11.00
2022-09-30T04:00:27.976Z,11.00
2022-09-30T04:03:01.275Z,11.00
2022-09-30T04:05:34.554Z,11.00
2022-09-30T04:08:09.119Z,11.00
2022-09-30T04:10:42.976Z,10.90
2022-09-30T04:13:16.157Z,11.00
2022-09-30T04:15:54.679Z,11.00
2022-09-30T04:18:28.072Z,10.90
2022-09-30T04:21:01.283Z,10.90
2022-09-30T04:23:37.549Z,10.90
2022-09-30T04:26:12.720Z,10.90
2022-09-30T04:28:46.034Z,11.00
2022-09-30T04:31:21.319Z,11.00
2022-09-30T04:33:57.065Z,10.90
2022-09-30T04:36:30.288Z,10.90
2022-09-30T04:39:05.124Z,10.90
2022-09-30T04:41:38.411Z,10.90
2022-09-30T04:44:12.031Z,10.90
2022-09-30T04:46:45.329Z,10.90
2022-09-30T04:49:18.600Z,10.90
2022-09-30T04:51:51.796Z,10.90
2022-09-30T04:54:26.598Z,10.90
2022-09-30T04:56:59.882Z,10.90
2022-09-30T04:59:33.853Z,10.90
2022-09-30T05:02:07.383Z,10.90
2022-09-30T05:04:40.630Z,10.90
2022-09-30T05:07:14.007Z,10.90
2022-09-30T05:09:48.681Z,10.90
2022-09-30T05:12:21.903Z,10.90
2022-09-30T05:14:55.081Z,10.90
2022-09-30T05:17:30.687Z,11.00
2022-09-30T05:20:04.098Z,11.00
2022-09-30T05:22:38.358Z,11.00
2022-09-30T05:25:12.990Z,11.00
2022-09-30T05:27:49.498Z,11.00
2022-09-30T05:30:22.722Z,11.00
2022-09-30T05:32:55.969Z,11.10
2022-09-30T05:35:29.538Z,11.10
2022-09-30T05:38:03.382Z,11.10
2022-09-30T05:40:40.532Z,11.10
2022-09-30T05:43:13.907Z,11.20
2022-09-30T05:45:52.723Z,11.20
2022-09-30T05:48:26.510Z,11.20
2022-09-30T05:51:01.877Z,11.30
2022-09-30T05:53:37.177Z,11.30
2022-09-30T05:56:12.122Z,11.40
2022-09-30T05:58:45.650Z,11.40
2022-09-30T06:01:18.901Z,11.50
2022-09-30T06:03:52.178Z,11.50
2022-09-30T06:06:25.384Z,11.50
2022-09-30T06:08:58.923Z,11.60
2022-09-30T06:11:35.138Z,11.70
2022-09-30T06:14:08.428Z,11.70
2022-09-30T06:16:41.787Z,11.80
2022-09-30T06:19:15.142Z,11.80
2022-09-30T06:21:48.323Z,11.90
2022-09-30T06:24:21.683Z,11.90
2022-09-30T06:26:56.379Z,11.90
2022-09-30T06:29:29.595Z,12.00
2022-09-30T06:32:03.559Z,12.10
2022-09-30T06:34:36.781Z,12.10
2022-09-30T06:37:10.323Z,12.20
2022-09-30T06:39:43.583Z,12.20
2022-09-30T06:42:18.943Z,12.20
2022-09-30T06:44:53.575Z,12.30
2022-09-30T06:47:27.023Z,12.30
2022-09-30T06:50:00.128Z,12.30
2022-09-30T06:52:33.432Z,12.40
2022-09-30T06:55:06.840Z,12.40
2022-09-30T06:57:42.283Z,12.40
2022-09-30T07:00:17.192Z,12.40
2022-09-30T07:02:50.324Z,12.40
2022-09-30T07:05:25.206Z,12.40
2022-09-30T07:07:58.290Z,12.50
2022-09-30T07:10:31.359Z,12.50
2022-09-30T07:13:06.888Z,12.60
2022-09-30T07:15:39.948Z,12.60
2022-09-30T07:18:13.003Z,12.60
2022-09-30T07:20:48.778Z,12.60
2022-09-30T07:23:26.436Z,12.70
2022-09-30T07:26:00.689Z,12.70
2022-09-30T07:28:36.228Z,12.70
2022-09-30T07:31:31.956Z,12.70
2022-09-30T07:34:07.587Z,12.80
2022-09-30T07:36:41.852Z,12.80
2022-09-30T07:39:15.020Z,12.90
2022-09-30T07:41:48.147Z,12.80
2022-09-30T07:44:28.881Z,12.90
2022-09-30T07:47:02.364Z,12.90
2022-09-30T07:49:35.462Z,12.90
2022-09-30T07:52:09.251Z,13.00
2022-09-30T07:54:48.049Z,13.00
2022-09-30T07:57:21.737Z,13.10
2022-09-30T07:59:56.298Z,13.10
2022-09-30T08:02:29.445Z,13.10
2022-09-30T08:05:02.566Z,13.10
2022-09-30T08:07:35.739Z,13.10
2022-09-30T08:10:09.310Z,13.10
2022-09-30T08:12:42.415Z,13.10
2022-09-30T08:15:17.017Z,13.10
2022-09-30T08:17:50.127Z,13.20
2022-09-30T08:20:23.204Z,13.20
2022-09-30T08:22:56.580Z,13.20
2022-09-30T08:25:29.646Z,13.20
2022-09-30T08:28:03.016Z,13.30
2022-09-30T08:30:37.576Z,13.40
2022-09-30T08:33:10.697Z,13.40
2022-09-30T08:35:43.790Z,13.50
2022-09-30T08:38:16.902Z,13.50
2022-09-30T08:40:55.564Z,13.50
2022-09-30T08:43:32.699Z,13.60
2022-09-30T08:46:10.183Z,13.60
2022-09-30T08:48:48.449Z,13.70
2022-09-30T08:51:29.140Z,13.70
2022-09-30T08:54:03.901Z,13.70
2022-09-30T08:56:37.850Z,13.80
2022-09-30T08:59:22.736Z,13.80
2022-09-30T09:02:00.653Z,13.90
2022-09-30T09:04:33.948Z,14.00
2022-09-30T09:07:09.825Z,14.00
2022-09-30T09:09:49.775Z,14.10
2022-09-30T09:12:29.053Z,14.20
2022-09-30T09:15:16.206Z,14.30
2022-09-30T09:18:22.716Z,14.40
2022-09-30T09:20:57.849Z,14.50
2022-09-30T09:23:32.070Z,14.60
2022-09-30T09:26:05.647Z,14.70
2022-09-30T09:28:41.403Z,14.70
2022-09-30T09:31:17.205Z,14.80
2022-09-30T09:33:52.871Z,14.80
2022-09-30T09:36:34.183Z,14.90
2022-09-30T09:39:12.388Z,14.90
2022-09-30T09:41:49.869Z,14.90
2022-09-30T09:44:26.490Z,15.00
2022-09-30T09:47:05.658Z,15.00
2022-09-30T09:49:41.804Z,15.10
2022-09-30T09:52:30.063Z,15.10
2022-09-30T09:55:04.062Z,15.20
2022-09-30T09:57:37.168Z,15.20
2022-09-30T10:00:28.570Z,15.20
2022-09-30T10:03:03.954Z,15.20
2022-09-30T10:05:40.751Z,15.30
2022-09-30T10:08:16.642Z,15.30
2022-09-30T10:10:51.909Z,15.20
2022-09-30T10:13:26.163Z,15.20
2022-09-30T10:15:59.955Z,15.20
2022-09-30T10:18:35.577Z,15.20
2022-09-30T10:21:25.787Z,15.20
2022-09-30T10:23:59.971Z,15.20
2022-09-30T10:26:47.664Z,15.30
2022-09-30T10:29:29.727Z,15.30
2022-09-30T10:32:04.046Z,15.30
2022-09-30T10:34:39.588Z,15.40
2022-09-30T10:37:16.046Z,15.40
2022-09-30T10:39:55.553Z,15.40
2022-09-30T10:42:29.601Z,15.40
2022-09-30T10:45:06.236Z,15.50
2022-09-30T10:47:45.009Z,15.50
2022-09-30T10:50:20.690Z,15.50
2022-09-30T10:52:56.788Z,15.50
2022-09-30T10:55:32.461Z,15.40
2022-09-30T10:58:23.174Z,15.40
2022-09-30T11:00:59.066Z,15.30
2022-09-30T11:03:35.685Z,15.30
2022-09-30T11:06:11.227Z,15.30
2022-09-30T11:08:48.615Z,15.30
2022-09-30T11:11:22.976Z,15.40
2022-09-30T11:13:58.516Z,15.40
2022-09-30T11:16:38.230Z,15.50
2022-09-30T11:19:17.450Z,15.50
2022-09-30T11:21:54.467Z,15.60
2022-09-30T11:24:32.895Z,15.60
2022-09-30T11:27:09.240Z,15.70
2022-09-30T11:29:47.278Z,15.70
2022-09-30T11:32:25.618Z,15.80
2022-09-30T11:35:02.491Z,15.90
2022-09-30T11:37:42.339Z,16.00
2022-09-30T11:40:27.634Z,16.00
2022-09-30T11:43:08.073Z,16.10
2022-09-30T11:45:50.779Z,16.10
2022-09-30T11:48:33.060Z,16.20
2022-09-30T11:51:12.319Z,16.20
2022-09-30T11:53:49.326Z,16.20
2022-09-30T11:56:33.268Z,16.30
2022-09-30T11:59:11.969Z,16.30
2022-09-30T12:01:46.786Z,16.30
2022-09-30T12:04:21.305Z,16.40
2022-09-30T12:06:55.980Z,16.40
2022-09-30T12:09:32.925Z,16.40
2022-09-30T12:12:12.454Z,16.40
2022-09-30T12:14:50.984Z,16.40
2022-09-30T12:17:27.953Z,16.40
2022-09-30T12:20:03.778Z,16.40
2022-09-30T12:22:40.240Z,16.40
2022-09-30T12:25:15.965Z,16.40
2022-09-30T12:27:52.139Z,16.40
2022-09-30T12:30:25.142Z,16.40
2022-09-30T12:33:10.712Z,16.40
2022-09-30T12:35:52.091Z,16.40
2022-09-30T12:38:31.316Z,16.40
2022-09-30T12:41:12.036Z,16.50
2022-09-30T12:44:13.248Z,16.50
2022-09-30T12:46:51.445Z,16.40
2022-09-30T12:49:26.382Z,16.40
2022-09-30T12:52:01.354Z,16.30
2022-09-30T12:54:35.974Z,16.20
2022-09-30T12:57:10.608Z,16.20
2022-09-30T12:59:50.420Z,16.10
2022-09-30T13:02:29.170Z,16.00
2022-09-30T13:05:20.940Z,16.00
2022-09-30T13:08:25.672Z,16.00
2022-09-30T13:11:00.170Z,16.00
2022-09-30T13:13:34.969Z,16.00
2022-09-30T13:16:11.028Z,15.90
2022-09-30T13:19:00.932Z,15.80
2022-09-30T13:21:34.033Z,15.80
2022-09-30T13:24:08.999Z,15.80
2022-09-30T13:26:43.229Z,15.80
2022-09-30T13:29:29.789Z,15.70
2022-09-30T13:32:05.144Z,15.70
2022-09-30T13:34:58.052Z,15.80
2022-09-30T13:37:37.917Z,15.80
2022-09-30T13:40:23.182Z,15.90
2022-09-30T13:43:06.321Z,15.90
2022-09-30T13:45:39.902Z,16.00
2022-09-30T13:48:16.487Z,16.00
2022-09-30T13:50:50.526Z,16.10
2022-09-30T13:53:28.742Z,16.20
2022-09-30T13:56:05.649Z,16.30
2022-09-30T13:58:46.815Z,16.40
2022-09-30T14:01:27.303Z,16.40
2022-09-30T14:04:07.138Z,16.40
2022-09-30T14:06:45.968Z,16.50
2022-09-30T14:09:42.857Z,16.70
2022-09-30T14:12:25.186Z,16.90
2022-09-30T14:15:22.202Z,17.10
2022-09-30T14:18:05.757Z,17.10
2022-09-30T14:20:51.779Z,17.10
2022-09-30T14:23:29.242Z,17.10
2022-09-30T14:26:11.655Z,17.00
2022-09-30T14:28:48.800Z,17.00
2022-09-30T14:31:21.971Z,17.00
2022-09-30T14:33:56.671Z,17.00
2022-09-30T14:36:34.083Z,16.90
2022-09-30T14:39:11.856Z,16.90
2022-09-30T14:41:49.630Z,16.90
2022-09-30T14:44:23.369Z,16.80
2022-09-30T14:47:01.338Z,16.80
2022-09-30T14:49:36.250Z,16.80
2022-09-30T14:52:35.367Z,16.80
2022-09-30T14:55:23.495Z,16.80
2022-09-30T14:57:58.902Z,16.70
2022-09-30T15:00:32.751Z,16.70
2022-09-30T15:03:11.615Z,16.70
2022-09-30T15:05:44.871Z,16.60
2022-09-30T15:08:20.853Z,16.50
2022-09-30T15:10:54.966Z,16.40
2022-09-30T15:13:29.834Z,16.40
2022-09-30T15:16:03.028Z,16.30
2022-09-30T15:18:44.246Z,16.30
2022-09-30T15:21:17.668Z,16.20
2022-09-30T15:23:53.275Z,16.10
2022-09-30T15:26:27.733Z,16.10
2022-09-30T15:29:00.911Z,16.00
2022-09-30T15:31:34.165Z,16.00
2022-09-30T15:34:08.208Z,16.00
2022-09-30T15:36:41.677Z,15.90
2022-09-30T15:39:21.019Z,15.90
2022-09-30T15:41:54.184Z,15.90
2022-09-30T15:44:38.427Z,15.80
2022-09-30T15:47:12.213Z,15.80
2022-09-30T15:49:47.889Z,15.80
2022-09-30T15:52:28.012Z,15.80
2022-09-30T15:55:02.816Z,15.70
2022-09-30T15:57:47.033Z,15.60
2022-09-30T16:00:34.643Z,15.60
2022-09-30T16:03:09.204Z,15.60
2022-09-30T16:05:42.864Z,15.50
2022-09-30T16:08:22.873Z,15.40
2022-09-30T16:10:58.365Z,15.30
2022-09-30T16:13:31.743Z,15.10
2022-09-30T16:16:04.966Z,15.00
2022-09-30T16:18:38.159Z,14.90
2022-09-30T16:21:28.408Z,14.80
2022-09-30T16:24:01.756Z,14.80
2022-09-30T16:26:36.271Z,14.70
2022-09-30T16:29:12.804Z,14.60
2022-09-30T16:31:49.190Z,14.60
2022-09-30T16:34:23.705Z,14.50
2022-09-30T16:37:04.356Z,14.50
2022-09-30T16:39:37.668Z,14.40
2022-09-30T16:42:13.736Z,14.30
2022-09-30T16:44:46.997Z,14.30
2022-09-30T16:47:21.085Z,14.20
2022-09-30T16:49:54.227Z,14.20
2022-09-30T16:52:27.327Z,14.20
2022-09-30T16:55:00.454Z,14.10
2022-09-30T16:57:34.982Z,14.10
2022-09-30T17:00:08.778Z,14.10
2022-09-30T17:02:41.950Z,14.10
2022-09-30T17:05:16.059Z,14.00
2022-09-30T17:07:50.999Z,14.00
2022-09-30T17:10:25.264Z,14.00
2022-09-30T17:13:01.046Z,14.00
2022-09-30T17:15:35.139Z,14.00
2022-09-30T17:18:09.292Z,14.00
2022-09-30T17:20:43.938Z,14.00
2022-09-30T17:23:17.050Z,13.90
2022-09-30T17:25:50.400Z,13.90
2022-09-30T17:28:26.713Z,13.90
2022-09-30T17:30:59.944Z,13.90
2022-09-30T17:33:33.543Z,13.90
2022-09-30T17:36:08.139Z,13.90
2022-09-30T17:38:41.834Z,13.90
2022-09-30T17:41:32.757Z,13.90
2022-09-30T17:44:07.660Z,13.90
2022-09-30T17:46:41.799Z,13.80
2022-09-30T17:49:20.726Z,13.80
2022-09-30T17:51:57.607Z,13.80
2022-09-30T17:54:31.651Z,13.80
2022-09-30T17:57:04.940Z,13.80
2022-09-30T17:59:39.469Z,13.80
2022-09-30T18:02:13.088Z,13.80
2022-09-30T18:04:46.452Z,13.80
2022-09-30T18:07:21.078Z,13.80
2022-09-30T18:09:54.539Z,13.70
2022-09-30T18:12:27.647Z,13.70
2022-09-30T18:15:02.175Z,13.70
2022-09-30T18:17:35.340Z,13.70
2022-09-30T18:20:09.318Z,13.70
2022-09-30T18:22:42.657Z,13.70
2022-09-30T18:25:22.952Z,13.70
2022-09-30T18:27:58.190Z,13.60
2022-09-30T18:30:32.813Z,13.60
2022-09-30T18:33:07.318Z,13.60
2022-09-30T18:35:40.713Z,13.50
2022-09-30T18:38:14.985Z,13.50
2022-09-30T18:40:50.001Z,13.50
2022-09-30T18:43:23.781Z,13.50
2022-09-30T18:45:58.823Z,13.50
2022-09-30T18:48:32.107Z,13.50
2022-09-30T18:51:06.290Z,13.50
2022-09-30T18:53:39.480Z,13.50
2022-09-30T18:56:29.905Z,13.50
2022-09-30T18:59:05.213Z,13.50
2022-09-30T19:01:40.017Z,13.50
2022-09-30T19:04:13.363Z,13.50
2022-09-30T19:06:47.747Z,13.50
2022-09-30T19:09:20.951Z,13.50
2022-09-30T19:11:54.071Z,13.50
2022-09-30T19:14:28.303Z,13.50
2022-09-30T19:17:02.908Z,13.50
2022-09-30T19:19:41.219Z,13.50
2022-09-30T19:22:14.610Z,13.40
2022-09-30T19:24:47.813Z,13.40
2022-09-30T19:27:22.459Z,13.40
2022-09-30T19:29:59.197Z,13.40
2022-09-30T19:32:35.054Z,13.40
2022-09-30T19:35:10.474Z,13.40
2022-09-30T19:37:55.319Z,13.40
2022-09-30T19:43:07.208Z,13.40
2022-09-30T19:45:40.397Z,13.40
2022-09-30T19:48:14.976Z,13.40
2022-09-30T19:50:48.094Z,13.40
2022-09-30T19:53:30.179Z,13.40
2022-09-30T19:56:04.919Z,13.40
2022-09-30T19:58:38.208Z,13.40
2022-09-30T20:01:12.030Z,13.30
2022-09-30T20:03:46.586Z,13.30
2022-09-30T20:06:19.893Z,13.30
2022-09-30T20:08:53.946Z,13.30
2022-09-30T20:11:27.625Z,13.30
2022-09-30T20:14:19.047Z,13.30
2022-09-30T20:16:52.170Z,13.30
2022-09-30T20:19:26.725Z,13.30
2022-09-30T20:21:59.872Z,13.20
2022-09-30T20:24:33.407Z,13.20
2022-09-30T20:27:06.532Z,13.20
2022-09-30T20:29:39.593Z,13.20
2022-09-30T20:32:12.659Z,13.20
2022-09-30T20:34:47.121Z,13.20
2022-09-30T20:37:20.281Z,13.10
2022-09-30T20:39:53.354Z,13.10
2022-09-30T20:42:29.521Z,13.10
2022-09-30T20:45:02.857Z,13.00
2022-09-30T20:47:36.221Z,13.00
2022-09-30T20:50:12.766Z,13.00
2022-09-30T20:52:45.914Z,13.00
2022-09-30T20:55:19.050Z,12.90
2022-09-30T20:57:52.159Z,12.90
2022-09-30T21:00:25.274Z,12.90
2022-09-30T21:02:58.375Z,12.90
2022-09-30T21:05:32.870Z,12.80
2022-09-30T21:08:07.353Z,12.80
2022-09-30T21:10:40.939Z,12.70
2022-09-30T21:13:14.051Z,12.70
2022-09-30T21:15:47.240Z,12.70
2022-09-30T21:18:20.407Z,12.70
2022-09-30T21:20:57.755Z,12.70
2022-09-30T21:23:31.742Z,12.70
2022-09-30T21:26:05.490Z,12.70
2022-09-30T21:28:38.920Z,12.70
2022-09-30T21:31:15.488Z,12.60
2022-09-30T21:33:50.881Z,12.60
2022-09-30T21:36:26.006Z,12.60
2022-09-30T21:39:02.226Z,12.60
2022-09-30T21:41:36.181Z,12.60
2022-09-30T21:44:09.492Z,12.60
2022-09-30T21:46:47.500Z,12.50
2022-09-30T21:49:23.070Z,12.50
2022-09-30T21:51:57.603Z,12.50
2022-09-30T21:54:30.751Z,12.50
2022-09-30T21:57:03.874Z,12.50
2022-09-30T21:59:46.295Z,12.50
2022-09-30T22:02:21.937Z,12.50
2022-09-30T22:04:55.211Z,12.60
2022-09-30T22:07:29.661Z,12.50
2022-09-30T22:10:02.739Z,12.50
2022-09-30T22:12:36.022Z,12.50
2022-09-30T22:15:09.524Z,12.50
2022-09-30T22:17:42.769Z,12.60
2022-09-30T22:20:16.053Z,12.60
2022-09-30T22:22:50.492Z,12.60
2022-09-30T22:25:24.218Z,12.60
2022-09-30T22:27:57.469Z,12.60
2022-09-30T22:30:30.645Z,12.50
2022-09-30T22:33:21.458Z,12.50
2022-09-30T22:36:13.092Z,12.50
2022-09-30T22:38:49.116Z,12.50
2022-09-30T22:41:22.269Z,12.50
2022-09-30T22:43:55.443Z,12.50
2022-09-30T22:46:29.383Z,12.50
2022-09-30T22:49:02.451Z,12.50
2022-09-30T22:51:35.887Z,12.50
2022-09-30T22:54:10.856Z,12.40
2022-09-30T22:56:43.951Z,12.40
2022-09-30T22:59:17.382Z,12.40
2022-09-30T23:01:50.488Z,12.40
2022-09-30T23:04:23.947Z,12.40
2022-09-30T23:06:57.141Z,12.40
2022-09-30T23:09:31.603Z,12.40
2022-09-30T23:12:05.339Z,12.40
2022-09-30T23:14:38.598Z,12.30
2022-09-30T23:17:13.229Z,12.30
2022-09-30T23:19:46.332Z,12.30
2022-09-30T23:22:19.964Z,12.30
2022-09-30T23:24:54.442Z,12.30
2022-09-30T23:27:27.640Z,12.30
2022-09-30T23:30:00.709Z,12.30
2022-09-30T23:32:33.985Z,12.30
2022-09-30T23:35:07.607Z,12.30
2022-09-30T23:37:40.908Z,12.20
2022-09-30T23:40:15.901Z,12.20
2022-09-30T23:42:51.470Z,12.20
2022-09-30T23:45:24.795Z,12.20
2022-09-30T23:47:59.173Z,12.30
2022-09-30T23:50:32.981Z,12.20
2022-09-30T23:53:07.076Z,12.30
2022-09-30T23:55:41.716Z,12.20
2022-09-30T23:58:14.802Z,12.30
